Terminal Aerodrome Forecast
Issued by NWS Los Angeles, CA

Current Version | Previous Version | Text Only | Print | Product List | Glossary On
Versions: 1 2 3 4 5 6 7 8 9 10 11 12 13 14 15 16 17 18 19 20
000
FTUS46 KLOX 241202 AAA
TAFSMX
TAF AMD
KSMX 241202Z 2412/2512 VRB03KT P6SM BKN015
     FM241700 31007KT P6SM BKN030
     FM242000 31015KT P6SM BKN030
     FM242200 31015KT P6SM SCT030
     FM250200 30012KT P6SM SCT030
     FM250700 29003KT P6SM OVC015=

USA.gov is the U.S. government's official web portal to all federal, state and local government web resources and services.